Time;durP1;ratioP1;P1;durP2;ratioP2;P2;SDS_P1;SDS_P2;PMS_P1;PMS_P2;Temp;Humidity;BMP_temperature;BMP_pressure;BME280_temperature;BME280_humidity;BME280_pressure;Samples;Min_cycle;Max_cycle;Signal;HPM_P1;HPM_P2
2021/03/13 00:01:28;;;;;;;0.60;0.60;;;5.60;70.50;;;;;;5140362;27;20444;-82
2021/03/13 00:03:54;;;;;;;1.27;0.60;;;5.60;70.50;;;;;;5137885;27;20466;-83
2021/03/13 00:06:20;;;;;;;0.50;0.50;;;5.60;70.60;;;;;;5132711;28;20755;-83
2021/03/13 00:08:47;;;;;;;1.10;0.70;;;5.50;70.50;;;;;;5129423;27;20444;-83
2021/03/13 00:11:16;;;;;;;3.57;0.50;;;5.50;70.50;;;;;;5128587;28;20450;-83
2021/03/13 00:13:42;;;;;;;3.07;0.80;;;5.60;70.60;;;;;;5130235;27;20439;-82
2021/03/13 00:16:10;;;;;;;0.53;0.53;;;5.50;70.30;;;;;;5129713;28;20454;-82
2021/03/13 00:18:39;;;;;;;0.60;0.50;;;5.50;70.80;;;;;;5123834;27;20452;-83
2021/03/13 00:21:07;;;;;;;1.27;0.93;;;5.50;70.80;;;;;;5139115;27;20518;-81
2021/03/13 00:23:34;;;;;;;0.60;0.40;;;5.50;70.90;;;;;;5129489;28;20465;-85
2021/03/13 00:26:00;;;;;;;1.87;0.50;;;5.50;71.00;;;;;;5138356;28;20463;-81
2021/03/13 00:28:27;;;;;;;3.53;0.60;;;5.50;70.80;;;;;;5141788;27;20482;-82
2021/03/13 00:30:54;;;;;;;0.60;0.50;;;5.60;71.00;;;;;;5134708;28;20414;-83
2021/03/13 00:33:23;;;;;;;1.20;0.70;;;5.50;70.60;;;;;;5147017;28;20458;-83
2021/03/13 00:35:52;;;;;;;2.83;0.60;;;5.60;70.80;;;;;;5150948;27;20544;-82
2021/03/13 00:38:19;;;;;;;0.73;0.50;;;5.60;70.40;;;;;;5134136;27;20454;-83
2021/03/13 00:40:46;;;;;;;1.33;0.67;;;5.60;70.50;;;;;;5148571;28;20461;-82
2021/03/13 00:43:17;;;;;;;0.80;0.80;;;5.80;71.50;;;;;;5123597;28;20446;-81
2021/03/13 00:45:45;;;;;;;1.23;0.60;;;5.60;72.00;;;;;;5145762;27;20448;-82
2021/03/13 00:48:14;;;;;;;3.07;0.70;;;5.60;72.60;;;;;;5143123;27;20746;-82
2021/03/13 00:50:44;;;;;;;1.53;0.40;;;5.50;73.60;;;;;;5142346;27;21009;-83
2021/03/13 00:53:11;;;;;;;3.13;0.60;;;5.50;74.80;;;;;;5151796;27;20436;-82
2021/03/13 00:55:38;;;;;;;0.70;0.60;;;5.50;74.70;;;;;;5137952;27;20444;-81
2021/03/13 00:58:05;;;;;;;0.97;0.63;;;5.40;75.20;;;;;;5148867;27;21004;-82
2021/03/13 01:00:32;;;;;;;0.70;0.60;;;5.40;75.20;;;;;;5150896;27;20515;-83
2021/03/13 01:02:59;;;;;;;1.83;0.60;;;5.30;75.60;;;;;;5151015;27;20433;-83
2021/03/13 01:05:28;;;;;;;1.47;0.43;;;5.30;75.90;;;;;;5148647;27;20469;-83
2021/03/13 01:07:56;;;;;;;1.80;0.50;;;5.30;76.10;;;;;;5146070;27;20471;-83
2021/03/13 01:10:26;;;;;;;1.13;0.50;;;5.30;75.80;;;;;;5153846;27;20443;-82
2021/03/13 01:12:56;;;;;;;3.37;0.70;;;5.30;75.90;;;;;;5140303;27;20965;-83
2021/03/13 01:15:24;;;;;;;3.10;0.50;;;5.40;76.00;;;;;;5136324;27;20534;-83
2021/03/13 01:17:51;;;;;;;0.70;0.60;;;5.40;75.90;;;;;;5134269;27;20509;-83
2021/03/13 01:20:21;;;;;;;1.00;0.50;;;5.40;75.60;;;;;;5137322;27;20442;-83
2021/03/13 01:22:47;;;;;;;1.33;0.50;;;5.40;75.80;;;;;;5130021;27;20458;-84
2021/03/13 01:25:15;;;;;;;1.80;0.50;;;5.40;75.40;;;;;;5137299;27;20450;-83
2021/03/13 01:27:42;;;;;;;1.63;0.70;;;5.40;75.40;;;;;;5146349;27;20468;-84
2021/03/13 01:30:11;;;;;;;5.83;0.80;;;5.40;75.40;;;;;;5143348;27;20447;-84
2021/03/13 01:32:38;;;;;;;2.47;0.60;;;5.40;75.00;;;;;;5141748;27;20469;-83
2021/03/13 01:35:06;;;;;;;2.33;0.70;;;5.60;75.10;;;;;;5150964;27;20438;-83
2021/03/13 01:37:33;;;;;;;1.33;0.80;;;5.50;75.10;;;;;;5143192;27;20447;-82
2021/03/13 01:40:06;;;;;;;1.17;0.60;;;5.50;74.80;;;;;;5142234;27;20479;-83
2021/03/13 01:42:33;;;;;;;1.87;0.70;;;5.50;74.70;;;;;;5137770;27;20466;-82
2021/03/13 01:45:00;;;;;;;0.70;0.50;;;5.50;74.70;;;;;;5147145;27;20477;-82
2021/03/13 01:47:29;;;;;;;2.03;0.40;;;5.50;74.60;;;;;;5139784;27;20470;-84
2021/03/13 01:49:57;;;;;;;4.50;0.60;;;5.60;74.60;;;;;;5140097;27;20466;-83
2021/03/13 01:52:24;;;;;;;0.60;0.43;;;5.60;74.20;;;;;;5140861;27;20494;-83
2021/03/13 01:54:52;;;;;;;0.60;0.60;;;5.60;74.40;;;;;;5141609;27;20476;-83
2021/03/13 01:57:20;;;;;;;1.03;0.43;;;5.60;74.60;;;;;;5146131;27;20435;-83
2021/03/13 01:59:47;;;;;;;5.30;0.80;;;5.60;74.80;;;;;;5143898;27;20447;-83
2021/03/13 02:02:16;;;;;;;0.57;0.40;;;5.70;74.80;;;;;;5145152;27;20460;-83
2021/03/13 02:04:43;;;;;;;1.03;0.40;;;5.70;75.00;;;;;;5142835;27;20475;-83
2021/03/13 02:07:18;;;;;;;0.80;0.50;;;5.70;75.40;;;;;;5142531;27;20550;-83
2021/03/13 02:09:55;;;;;;;2.50;0.50;;;5.60;75.60;;;;;;5127816;27;20451;-85
2021/03/13 02:12:36;;;;;;;2.87;0.63;;;5.60;75.60;;;;;;5130600;27;20487;-83
2021/03/13 02:15:12;;;;;;;3.03;0.93;;;5.60;76.10;;;;;;5144257;27;20573;-84
2021/03/13 02:17:43;;;;;;;1.60;0.60;;;5.60;76.60;;;;;;5133243;27;20987;-83
2021/03/13 02:20:30;;;;;;;1.47;0.47;;;5.50;77.00;;;;;;5144514;27;20455;-82
2021/03/13 02:23:00;;;;;;;2.00;0.60;;;5.40;77.60;;;;;;5142259;27;20472;-83
2021/03/13 02:25:50;;;;;;;0.80;0.60;;;5.40;78.60;;;;;;5145848;27;20443;-82
2021/03/13 02:28:37;;;;;;;1.43;0.80;;;5.50;78.60;;;;;;5135761;27;20455;-82
2021/03/13 02:31:08;;;;;;;1.53;0.50;;;5.40;78.70;;;;;;5154260;27;20433;-83
2021/03/13 02:33:40;;;;;;;3.03;0.70;;;5.40;79.20;;;;;;5156432;27;20462;-84
2021/03/13 02:36:20;;;;;;;0.70;0.60;;;5.30;79.20;;;;;;5138207;27;20529;-85
2021/03/13 02:38:54;;;;;;;2.67;0.50;;;5.30;79.60;;;;;;5137845;27;20459;-85
2021/03/13 02:41:25;;;;;;;0.80;0.60;;;5.20;79.70;;;;;;5144109;27;20446;-83
2021/03/13 02:44:00;;;;;;;0.60;0.50;;;5.20;80.00;;;;;;5144428;27;20455;-82
2021/03/13 02:46:31;;;;;;;1.57;0.50;;;5.10;80.10;;;;;;5141179;27;20466;-84
2021/03/13 02:49:00;;;;;;;0.50;0.40;;;5.10;80.60;;;;;;5150818;27;20509;-84
2021/03/13 02:51:30;;;;;;;2.13;0.70;;;5.10;81.00;;;;;;5145820;27;20481;-84
2021/03/13 02:53:58;;;;;;;1.97;0.67;;;5.20;80.80;;;;;;5146284;27;20474;-84
2021/03/13 02:56:27;;;;;;;1.00;0.90;;;5.10;80.40;;;;;;5149786;27;20451;-85
2021/03/13 02:59:01;;;;;;;1.60;0.80;;;5.10;80.50;;;;;;5140007;27;20483;-83
2021/03/13 03:01:31;;;;;;;0.80;0.80;;;5.10;80.70;;;;;;5135065;27;21000;-84
2021/03/13 03:04:03;;;;;;;0.60;0.60;;;5.10;80.60;;;;;;5132387;27;20526;-85
2021/03/13 03:06:34;;;;;;;1.40;0.80;;;5.10;80.40;;;;;;5146066;27;20920;-83
2021/03/13 03:09:03;;;;;;;2.47;0.93;;;5.10;80.30;;;;;;5137094;27;20469;-83
2021/03/13 03:11:31;;;;;;;1.23;0.90;;;5.20;80.60;;;;;;5140381;27;20592;-84
2021/03/13 03:13:58;;;;;;;1.70;0.90;;;5.10;80.40;;;;;;5143395;27;20435;-82
2021/03/13 03:16:26;;;;;;;0.80;0.80;;;5.10;81.30;;;;;;5149947;27;20470;-83
2021/03/13 03:18:58;;;;;;;0.90;0.90;;;5.20;82.20;;;;;;5141678;27;20490;-82
2021/03/13 03:21:24;;;;;;;1.80;1.13;;;5.20;82.20;;;;;;5143476;27;20467;-83
2021/03/13 03:23:51;;;;;;;1.00;0.90;;;5.20;82.70;;;;;;5142379;27;20471;-83
2021/03/13 03:26:18;;;;;;;2.73;1.20;;;5.30;83.50;;;;;;5153079;27;20479;-83
2021/03/13 03:28:47;;;;;;;2.93;1.07;;;5.20;84.20;;;;;;5154388;27;20467;-80
2021/03/13 03:31:15;;;;;;;1.20;1.10;;;5.20;84.20;;;;;;5149580;27;20470;-83
2021/03/13 03:33:42;;;;;;;1.33;1.07;;;5.10;85.10;;;;;;5133959;27;20456;-82
2021/03/13 03:36:12;;;;;;;2.73;1.77;;;5.10;85.20;;;;;;5145431;27;20442;-81
2021/03/13 03:38:39;;;;;;;1.20;1.10;;;5.10;85.50;;;;;;5130865;27;20515;-84
2021/03/13 03:41:10;;;;;;;2.07;1.13;;;5.10;85.50;;;;;;5139763;27;20451;-82
2021/03/13 03:43:40;;;;;;;1.20;1.10;;;5.10;85.10;;;;;;5137572;27;20454;-84
2021/03/13 03:46:08;;;;;;;1.20;1.10;;;5.00;85.10;;;;;;5133489;27;20496;-84
2021/03/13 03:48:36;;;;;;;1.30;1.20;;;5.00;85.60;;;;;;5138702;27;20591;-84
2021/03/13 03:51:11;;;;;;;1.93;1.60;;;5.00;86.10;;;;;;5135074;27;20454;-83
2021/03/13 03:53:41;;;;;;;1.57;1.43;;;5.10;86.40;;;;;;5150078;27;20445;-82
2021/03/13 03:56:08;;;;;;;1.73;1.30;;;4.90;86.20;;;;;;5142737;27;20462;-83
2021/03/13 03:58:39;;;;;;;1.50;1.30;;;4.90;87.20;;;;;;5147046;27;20462;-83
2021/03/13 04:01:09;;;;;;;1.13;1.13;;;4.90;86.60;;;;;;5141134;27;20506;-82
2021/03/13 04:03:38;;;;;;;2.07;1.20;;;5.00;86.80;;;;;;5145000;27;20503;-83
2021/03/13 04:06:08;;;;;;;1.60;1.50;;;5.00;86.10;;;;;;5150689;27;20459;-83
2021/03/13 04:08:38;;;;;;;1.60;1.50;;;5.00;86.30;;;;;;5137158;28;20455;-83
2021/03/13 04:11:08;;;;;;;1.60;1.20;;;5.10;85.60;;;;;;5134152;28;20455;-82
2021/03/13 04:13:38;;;;;;;1.53;1.43;;;5.10;85.60;;;;;;5143196;28;20514;-83
2021/03/13 04:16:05;;;;;;;1.10;1.00;;;5.20;84.90;;;;;;5138528;28;20456;-83
2021/03/13 04:18:33;;;;;;;1.63;1.40;;;5.20;84.50;;;;;;5139715;27;20458;-82
2021/03/13 04:21:01;;;;;;;2.37;1.40;;;5.20;83.90;;;;;;5135984;28;20455;-82
2021/03/13 04:23:28;;;;;;;1.33;1.23;;;5.30;83.80;;;;;;5134865;27;20474;-83
2021/03/13 04:25:56;;;;;;;1.70;1.60;;;5.30;83.80;;;;;;5150596;27;20445;-83
2021/03/13 04:28:23;;;;;;;1.30;1.20;;;5.30;83.90;;;;;;5147429;27;20441;-83
2021/03/13 04:30:51;;;;;;;1.60;0.97;;;5.30;83.70;;;;;;5160636;27;20426;-83
2021/03/13 04:33:18;;;;;;;4.73;1.27;;;5.30;84.00;;;;;;5149317;27;21390;-83
2021/03/13 04:35:49;;;;;;;2.10;1.20;;;5.40;84.10;;;;;;5144013;27;20454;-83
2021/03/13 04:38:18;;;;;;;1.40;1.30;;;5.30;83.90;;;;;;5140423;27;20536;-82
2021/03/13 04:40:45;;;;;;;2.23;1.90;;;5.30;84.30;;;;;;5142580;27;20482;-84
2021/03/13 04:43:14;;;;;;;2.67;1.27;;;5.30;84.40;;;;;;5148115;27;20817;-83
2021/03/13 04:45:42;;;;;;;1.33;1.10;;;5.30;84.00;;;;;;5129538;27;20459;-83
2021/03/13 04:48:10;;;;;;;3.70;1.43;;;5.30;84.60;;;;;;5129681;27;20467;-83
2021/03/13 04:50:37;;;;;;;3.53;1.10;;;5.30;84.30;;;;;;5134244;27;20454;-83
2021/03/13 04:53:05;;;;;;;3.47;1.70;;;5.30;84.10;;;;;;5139459;27;20475;-83
2021/03/13 04:55:31;;;;;;;2.67;1.43;;;5.30;84.50;;;;;;5133407;27;20512;-84
2021/03/13 04:57:58;;;;;;;2.20;1.40;;;5.30;84.30;;;;;;5128700;27;20445;-84
2021/03/13 05:00:26;;;;;;;1.50;1.37;;;5.30;84.50;;;;;;5133798;27;20451;-83
2021/03/13 05:02:52;;;;;;;2.03;1.03;;;5.20;84.30;;;;;;5134364;27;20525;-84
2021/03/13 05:05:19;;;;;;;2.53;1.33;;;5.20;84.60;;;;;;5132139;27;20520;-83
2021/03/13 05:07:46;;;;;;;2.10;1.57;;;5.20;83.90;;;;;;5130950;27;20471;-85
2021/03/13 05:10:15;;;;;;;2.23;1.20;;;5.20;83.80;;;;;;5132731;27;20470;-82
2021/03/13 05:12:43;;;;;;;1.50;1.37;;;5.30;84.00;;;;;;5141872;27;20469;-83
2021/03/13 05:15:11;;;;;;;1.73;1.20;;;5.30;83.90;;;;;;5147640;27;20454;-83
2021/03/13 05:17:38;;;;;;;2.83;1.33;;;5.30;83.20;;;;;;5136691;27;20477;-83
2021/03/13 05:20:06;;;;;;;1.57;1.10;;;5.40;82.90;;;;;;5136792;27;20453;-84
2021/03/13 05:22:33;;;;;;;2.90;1.70;;;5.40;82.00;;;;;;5131208;27;20488;-83
2021/03/13 05:25:00;;;;;;;1.90;1.30;;;5.40;81.90;;;;;;5135967;27;20870;-83
2021/03/13 05:27:26;;;;;;;1.97;0.90;;;5.50;81.20;;;;;;5138260;27;20478;-83
2021/03/13 05:29:53;;;;;;;1.43;1.20;;;5.50;80.80;;;;;;5141711;27;20454;-83
2021/03/13 05:32:21;;;;;;;1.77;1.53;;;5.60;80.30;;;;;;5144293;27;21115;-84
2021/03/13 05:34:49;;;;;;;2.63;1.67;;;5.60;80.00;;;;;;5146896;27;20449;-83
2021/03/13 05:37:16;;;;;;;2.60;2.40;;;5.60;79.40;;;;;;5148277;27;20448;-84
2021/03/13 05:39:42;;;;;;;2.77;1.60;;;5.60;79.00;;;;;;5143435;27;20479;-83
2021/03/13 05:42:16;;;;;;;4.33;1.33;;;5.70;78.70;;;;;;5139618;27;20487;-83
2021/03/13 05:44:44;;;;;;;1.50;1.10;;;5.70;77.40;;;;;;5155675;27;20456;-84
2021/03/13 05:47:11;;;;;;;1.43;0.90;;;5.80;77.00;;;;;;5153212;27;20508;-83
2021/03/13 05:49:42;;;;;;;4.40;1.00;;;5.90;76.10;;;;;;5145429;27;20453;-83
2021/03/13 05:52:11;;;;;;;4.10;1.00;;;6.00;76.00;;;;;;5132657;27;20460;-83
2021/03/13 05:54:37;;;;;;;0.80;0.80;;;6.00;75.40;;;;;;5143697;27;20459;-84
2021/03/13 05:57:08;;;;;;;4.37;1.10;;;6.10;75.10;;;;;;5141066;27;20448;-83
2021/03/13 05:59:36;;;;;;;4.10;1.77;;;6.20;74.30;;;;;;5139945;27;20823;-84
2021/03/13 06:02:04;;;;;;;2.20;1.37;;;6.30;74.10;;;;;;5140321;27;21048;-84
2021/03/13 06:04:31;;;;;;;2.20;1.40;;;6.40;73.40;;;;;;5144228;27;20449;-83
2021/03/13 06:07:00;;;;;;;4.10;1.53;;;6.50;73.50;;;;;;5144770;27;21189;-83
2021/03/13 06:09:27;;;;;;;1.43;1.17;;;6.50;73.10;;;;;;5132674;27;20453;-84
2021/03/13 06:11:57;;;;;;;2.20;1.10;;;6.60;73.10;;;;;;5134207;27;20449;-85
2021/03/13 06:14:23;;;;;;;2.83;1.23;;;6.60;73.00;;;;;;5142829;27;20456;-85
2021/03/13 06:16:52;;;;;;;2.20;1.33;;;6.70;72.80;;;;;;5135701;27;20459;-83
2021/03/13 06:19:19;;;;;;;3.23;1.23;;;6.80;72.60;;;;;;5143746;27;20454;-82
2021/03/13 06:21:47;;;;;;;1.80;0.83;;;6.80;72.20;;;;;;5142504;27;20444;-83
2021/03/13 06:24:18;;;;;;;3.83;1.20;;;6.80;71.70;;;;;;5134116;27;20479;-84
2021/03/13 06:26:54;;;;;;;2.10;0.90;;;6.90;72.00;;;;;;5138887;27;20689;-84
2021/03/13 06:29:22;;;;;;;1.50;0.93;;;7.00;71.80;;;;;;5140423;27;20448;-83
2021/03/13 06:32:04;;;;;;;2.60;1.20;;;7.10;71.60;;;;;;5137484;27;20431;-84
2021/03/13 06:34:34;;;;;;;3.83;1.30;;;7.10;71.20;;;;;;5146378;27;20612;-83
2021/03/13 06:37:24;;;;;;;1.83;0.97;;;7.20;71.40;;;;;;5135937;27;20453;-84
2021/03/13 06:39:51;;;;;;;4.37;1.10;;;7.20;71.20;;;;;;5142788;27;20455;-83
2021/03/13 06:42:39;;;;;;;1.47;0.80;;;7.20;71.00;;;;;;5144368;27;20452;-84
2021/03/13 06:45:07;;;;;;;1.23;0.83;;;7.20;70.60;;;;;;5138400;27;20465;-83
2021/03/13 06:47:35;;;;;;;2.80;0.80;;;7.20;70.80;;;;;;5126528;27;20817;-84
2021/03/13 06:50:12;;;;;;;2.63;1.30;;;7.20;70.90;;;;;;5144471;27;20468;-84
2021/03/13 06:52:41;;;;;;;1.70;1.10;;;7.20;70.60;;;;;;5153324;27;20697;-83
2021/03/13 06:55:17;;;;;;;4.33;1.53;;;7.20;70.10;;;;;;5150432;27;20446;-83
2021/03/13 06:57:47;;;;;;;2.53;1.13;;;7.40;70.10;;;;;;5147441;27;20445;-83
2021/03/13 07:00:26;;;;;;;5.50;1.40;;;7.50;70.10;;;;;;5150162;27;20452;-83
2021/03/13 07:02:52;;;;;;;2.30;1.10;;;7.50;69.90;;;;;;5134240;27;20446;-83
2021/03/13 07:05:38;;;;;;;2.43;1.10;;;7.50;69.80;;;;;;5139655;27;20492;-84
2021/03/13 07:08:26;;;;;;;2.73;0.90;;;7.50;69.70;;;;;;5150697;27;20570;-84
2021/03/13 07:11:15;;;;;;;2.00;0.90;;;7.50;69.80;;;;;;5138918;27;20455;-83
2021/03/13 07:13:44;;;;;;;2.80;1.10;;;7.60;69.60;;;;;;5142646;27;21347;-83
2021/03/13 07:16:30;;;;;;;1.50;0.80;;;7.70;69.20;;;;;;5144620;27;20453;-83
2021/03/13 07:19:00;;;;;;;6.37;1.87;;;7.70;69.10;;;;;;5135079;27;20618;-83
2021/03/13 07:21:27;;;;;;;2.03;1.10;;;7.90;68.90;;;;;;5140864;27;20457;-83
2021/03/13 07:23:57;;;;;;;2.40;1.03;;;7.80;68.70;;;;;;5130430;27;21224;-81
2021/03/13 07:26:31;;;;;;;3.00;0.97;;;7.90;68.50;;;;;;5121093;27;20457;-81
2021/03/13 07:29:00;;;;;;;1.60;1.20;;;8.00;68.20;;;;;;5134021;27;20464;-81
2021/03/13 07:31:30;;;;;;;2.87;1.07;;;8.30;68.00;;;;;;5146366;27;20452;-81
2021/03/13 07:34:00;;;;;;;1.50;0.90;;;8.40;67.50;;;;;;5133928;27;20446;-82
2021/03/13 07:36:27;;;;;;;1.27;1.07;;;8.50;67.30;;;;;;5127399;27;21082;-81
2021/03/13 07:38:59;;;;;;;2.50;1.37;;;8.50;66.90;;;;;;5130015;27;20528;-82
2021/03/13 07:41:26;;;;;;;2.37;1.10;;;8.60;66.50;;;;;;5129890;27;20447;-82
2021/03/13 07:43:54;;;;;;;2.27;1.37;;;8.60;66.30;;;;;;5134305;27;20958;-80
2021/03/13 07:46:23;;;;;;;1.97;1.67;;;8.60;66.10;;;;;;5134600;27;20447;-80
2021/03/13 07:48:50;;;;;;;2.90;1.00;;;8.70;66.40;;;;;;5134740;27;20447;-83
2021/03/13 07:51:17;;;;;;;1.47;0.87;;;8.70;66.00;;;;;;5137754;27;21123;-83
2021/03/13 07:53:44;;;;;;;2.63;1.13;;;8.70;65.70;;;;;;5122585;27;20442;-81
2021/03/13 07:56:13;;;;;;;2.23;1.20;;;8.70;65.60;;;;;;5119720;27;20561;-82
2021/03/13 07:58:42;;;;;;;2.90;0.77;;;8.80;65.10;;;;;;5137340;27;20456;-81
2021/03/13 08:01:12;;;;;;;2.30;1.00;;;9.10;65.10;;;;;;5130021;27;20759;-81
2021/03/13 08:03:48;;;;;;;1.90;1.10;;;8.90;64.10;;;;;;5126998;27;20863;-84
2021/03/13 08:06:18;;;;;;;4.83;1.23;;;9.10;63.90;;;;;;5124659;27;20569;-84
2021/03/13 08:08:50;;;;;;;1.63;0.80;;;9.20;63.80;;;;;;5130211;27;20439;-82
2021/03/13 08:11:18;;;;;;;4.37;1.00;;;9.10;63.60;;;;;;5136068;28;20478;-84
2021/03/13 08:14:00;;;;;;;3.40;1.00;;;9.20;63.10;;;;;;5136349;27;20480;-84
2021/03/13 08:16:42;;;;;;;3.30;1.07;;;9.40;63.00;;;;;;5137882;28;20459;-82
2021/03/13 08:19:31;;;;;;;1.83;1.13;;;9.30;62.80;;;;;;5129233;27;20533;-81
2021/03/13 08:22:18;;;;;;;1.53;0.80;;;9.40;62.50;;;;;;5109700;27;20463;-81
2021/03/13 08:24:48;;;;;;;1.90;0.70;;;9.40;62.00;;;;;;5123998;28;20505;-84
2021/03/13 08:27:17;;;;;;;2.10;0.90;;;9.30;61.80;;;;;;5134799;28;20474;-84
2021/03/13 08:30:00;;;;;;;1.10;0.67;;;9.30;61.90;;;;;;5134874;28;20475;-81
2021/03/13 08:33:04;;;;;;;2.03;0.60;;;9.40;61.70;;;;;;5134129;28;20450;-85
2021/03/13 08:35:40;;;;;;;2.00;0.93;;;9.50;61.30;;;;;;5133016;28;20488;-83
2021/03/13 08:38:08;;;;;;;2.03;0.83;;;9.70;61.00;;;;;;5123906;28;21947;-84
2021/03/13 08:40:41;;;;;;;2.30;1.10;;;9.60;61.20;;;;;;5126179;28;20472;-83
2021/03/13 08:43:42;;;;;;;1.80;1.10;;;9.60;60.60;;;;;;5113409;27;20948;-85
2021/03/13 08:46:48;;;;;;;2.03;0.90;;;9.60;60.40;;;;;;5126776;28;20446;-82
2021/03/13 08:49:43;;;;;;;1.97;0.77;;;9.50;60.40;;;;;;5126262;27;20454;-82
2021/03/13 08:52:27;;;;;;;0.80;0.77;;;9.60;60.40;;;;;;5141347;27;20450;-87
2021/03/13 08:54:54;;;;;;;3.43;0.90;;;9.70;59.80;;;;;;5140054;27;20459;-84
2021/03/13 08:57:44;;;;;;;1.47;0.80;;;10.00;59.00;;;;;;5142410;28;20724;-83
2021/03/13 09:00:17;;;;;;;1.10;0.70;;;10.10;58.60;;;;;;5135898;27;20465;-82
2021/03/13 09:02:47;;;;;;;2.20;1.20;;;10.20;58.00;;;;;;5138652;27;20549;-84
2021/03/13 09:05:18;;;;;;;2.50;1.00;;;10.30;58.10;;;;;;5140976;27;20453;-84
2021/03/13 09:07:48;;;;;;;5.20;1.53;;;10.40;57.50;;;;;;5146401;27;20458;-84
2021/03/13 09:10:17;;;;;;;3.07;0.90;;;10.30;57.70;;;;;;5153762;27;20480;-85
2021/03/13 09:12:47;;;;;;;3.00;0.83;;;10.50;57.40;;;;;;5153153;27;20516;-84
2021/03/13 09:15:16;;;;;;;3.50;1.00;;;10.60;57.40;;;;;;5142617;27;20451;-85
2021/03/13 09:17:53;;;;;;;2.23;0.87;;;10.60;57.10;;;;;;5150901;27;20623;-85
2021/03/13 09:20:23;;;;;;;10.20;1.80;;;10.80;56.90;;;;;;5152071;27;20480;-83
2021/03/13 09:22:52;;;;;;;1.63;0.80;;;10.70;56.60;;;;;;5143102;27;20495;-81
2021/03/13 09:25:22;;;;;;;1.73;0.90;;;10.60;56.30;;;;;;5137099;27;20461;-81
2021/03/13 09:27:50;;;;;;;8.23;1.23;;;10.80;56.40;;;;;;5133708;27;20464;-79
2021/03/13 09:30:19;;;;;;;1.53;0.70;;;10.70;56.10;;;;;;5138749;27;20457;-81
2021/03/13 09:32:47;;;;;;;2.03;1.00;;;10.80;56.10;;;;;;5128083;27;20545;-76
2021/03/13 09:35:14;;;;;;;2.07;0.90;;;11.00;56.10;;;;;;5124528;27;20453;-79
2021/03/13 09:37:41;;;;;;;6.43;0.80;;;11.10;55.70;;;;;;5116617;27;20510;-78
2021/03/13 09:40:11;;;;;;;2.97;1.37;;;11.10;55.50;;;;;;5124184;27;20864;-75
2021/03/13 09:42:38;;;;;;;3.17;0.90;;;11.10;55.50;;;;;;5123239;27;20551;-78
2021/03/13 09:45:07;;;;;;;12.47;1.60;;;11.30;55.20;;;;;;5112437;27;20549;-76
2021/03/13 09:47:36;;;;;;;2.53;0.80;;;11.30;55.10;;;;;;5124291;27;20473;-75
2021/03/13 09:50:04;;;;;;;1.80;0.70;;;11.20;54.80;;;;;;5118956;27;21029;-75
2021/03/13 09:52:32;;;;;;;3.30;0.90;;;11.00;54.90;;;;;;5113820;27;20472;-76
2021/03/13 09:55:10;;;;;;;1.70;1.10;;;10.80;54.80;;;;;;5117882;27;20545;-77
2021/03/13 09:57:39;;;;;;;2.87;1.10;;;10.70;54.70;;;;;;5124044;27;20470;-76
2021/03/13 10:00:08;;;;;;;3.37;0.97;;;10.90;54.80;;;;;;5132819;27;20503;-76
2021/03/13 10:02:35;;;;;;;5.20;1.10;;;11.20;54.50;;;;;;5120430;27;20466;-75
2021/03/13 10:05:02;;;;;;;2.80;0.80;;;11.30;54.20;;;;;;5119728;27;20481;-76
2021/03/13 10:07:29;;;;;;;3.17;0.90;;;11.50;54.00;;;;;;5129867;27;20584;-78
2021/03/13 10:09:58;;;;;;;10.13;1.30;;;11.60;53.60;;;;;;5118698;27;20441;-75
2021/03/13 10:12:27;;;;;;;0.83;0.50;;;11.40;53.80;;;;;;5111824;27;20828;-75
2021/03/13 10:14:54;;;;;;;2.43;0.80;;;11.20;53.40;;;;;;5128227;27;20455;-76
2021/03/13 10:17:20;;;;;;;3.47;0.80;;;11.10;53.50;;;;;;5131496;27;20544;-76
2021/03/13 10:19:49;;;;;;;1.43;0.60;;;11.20;53.60;;;;;;5132202;27;21052;-75
2021/03/13 10:22:19;;;;;;;2.93;1.10;;;11.10;53.20;;;;;;5130590;27;20904;-75
2021/03/13 10:24:48;;;;;;;1.50;1.03;;;11.20;53.30;;;;;;5131663;27;20745;-74
2021/03/13 10:27:26;;;;;;;2.03;1.20;;;11.10;53.20;;;;;;5122072;27;20485;-75
2021/03/13 10:29:59;;;;;;;1.87;1.00;;;11.10;52.90;;;;;;5131925;27;20447;-77
2021/03/13 10:32:27;;;;;;;12.47;1.10;;;11.20;52.70;;;;;;5113449;27;20540;-75
2021/03/13 10:35:21;;;;;;;2.03;0.90;;;11.20;52.80;;;;;;5131473;27;20932;-76
2021/03/13 10:37:50;;;;;;;2.23;1.03;;;11.20;52.70;;;;;;5114338;27;20512;-79
2021/03/13 10:40:32;;;;;;;5.90;1.00;;;11.20;52.70;;;;;;5126617;27;20481;-76
2021/03/13 10:43:22;;;;;;;3.83;0.97;;;11.20;52.50;;;;;;5120245;27;20543;-79
2021/03/13 10:46:21;;;;;;;4.10;2.23;;;11.10;52.30;;;;;;5119025;27;20445;-76
2021/03/13 10:49:02;;;;;;;3.30;1.80;;;11.20;52.10;;;;;;5114852;27;20479;-77
2021/03/13 10:51:30;;;;;;;2.77;1.40;;;11.30;52.10;;;;;;5124027;27;20808;-75
2021/03/13 10:53:58;;;;;;;2.87;1.60;;;11.10;52.00;;;;;;5128864;27;20464;-77
2021/03/13 10:56:36;;;;;;;2.93;1.50;;;11.00;51.60;;;;;;5130933;27;20803;-77
2021/03/13 10:59:04;;;;;;;1.97;1.20;;;11.00;51.60;;;;;;5121035;27;20457;-75
2021/03/13 11:01:30;;;;;;;1.40;1.07;;;10.90;51.40;;;;;;5131547;27;20452;-80
2021/03/13 11:03:56;;;;;;;1.70;0.90;;;11.00;51.60;;;;;;5132053;27;20454;-76
2021/03/13 11:06:28;;;;;;;2.57;1.00;;;11.00;51.30;;;;;;5128011;27;20453;-75
2021/03/13 11:08:55;;;;;;;4.27;1.17;;;11.00;51.00;;;;;;5119323;27;20992;-77
2021/03/13 11:11:22;;;;;;;1.70;0.83;;;11.00;51.00;;;;;;5112657;27;20459;-77
2021/03/13 11:13:49;;;;;;;0.90;0.70;;;11.00;51.00;;;;;;5129959;27;20456;-83
2021/03/13 11:16:16;;;;;;;4.00;0.70;;;11.10;50.80;;;;;;5123014;27;20481;-78
2021/03/13 11:18:43;;;;;;;1.53;0.90;;;11.00;50.50;;;;;;5117044;27;20454;-77
2021/03/13 11:21:09;;;;;;;2.20;0.73;;;11.10;50.30;;;;;;5127638;27;20875;-75
2021/03/13 11:23:36;;;;;;;6.03;1.20;;;11.10;49.50;;;;;;5129863;27;20489;-76
2021/03/13 11:26:02;;;;;;;2.10;0.70;;;11.10;49.00;;;;;;5129404;27;20482;-75
2021/03/13 11:28:28;;;;;;;1.23;1.00;;;11.10;49.00;;;;;;5128277;27;20469;-79
2021/03/13 11:30:55;;;;;;;1.27;0.50;;;11.10;48.90;;;;;;5129839;27;20552;-76
2021/03/13 11:33:22;;;;;;;3.80;0.77;;;11.10;48.70;;;;;;5123665;27;20521;-81
2021/03/13 11:35:48;;;;;;;0.60;0.43;;;11.10;48.40;;;;;;5129929;27;20886;-76
2021/03/13 11:38:15;;;;;;;0.77;0.50;;;11.20;48.50;;;;;;5128623;27;20452;-75
2021/03/13 11:40:41;;;;;;;1.97;0.50;;;11.20;48.20;;;;;;5120449;27;20464;-76
2021/03/13 11:43:08;;;;;;;1.63;0.70;;;11.30;48.40;;;;;;5129927;27;20529;-76
2021/03/13 11:45:34;;;;;;;1.80;0.70;;;11.30;48.50;;;;;;5128867;27;20503;-76
2021/03/13 11:48:01;;;;;;;0.60;0.40;;;11.40;48.30;;;;;;5130128;27;20466;-76
2021/03/13 11:50:30;;;;;;;1.83;0.50;;;11.40;48.20;;;;;;5129678;27;20513;-76
2021/03/13 11:52:57;;;;;;;1.13;0.63;;;11.30;48.20;;;;;;5130573;27;20814;-75
2021/03/13 11:55:24;;;;;;;8.73;0.60;;;11.40;48.20;;;;;;5116289;27;20449;-78
2021/03/13 11:57:50;;;;;;;2.00;0.73;;;11.30;48.30;;;;;;5130286;27;20437;-80
2021/03/13 12:00:18;;;;;;;1.20;0.70;;;11.40;48.50;;;;;;5121843;27;20935;-75
2021/03/13 12:02:44;;;;;;;1.33;0.40;;;11.40;48.30;;;;;;5127267;27;20478;-78
2021/03/13 12:05:12;;;;;;;0.70;0.53;;;11.20;48.60;;;;;;5133556;27;20550;-75
2021/03/13 12:07:40;;;;;;;2.77;0.63;;;11.20;48.80;;;;;;5125969;27;20495;-75
2021/03/13 12:10:09;;;;;;;0.80;0.40;;;11.30;48.60;;;;;;5120474;27;20584;-75
2021/03/13 12:12:36;;;;;;;1.53;0.60;;;11.30;49.00;;;;;;5128394;28;20471;-75
2021/03/13 12:15:05;;;;;;;1.57;0.50;;;11.30;48.90;;;;;;5129613;28;20453;-77
2021/03/13 12:17:31;;;;;;;1.30;0.70;;;11.40;49.30;;;;;;5129282;28;21023;-75
2021/03/13 12:19:58;;;;;;;2.10;0.60;;;11.30;49.80;;;;;;5129808;28;20468;-75
2021/03/13 12:22:26;;;;;;;1.53;0.73;;;11.30;50.00;;;;;;5126461;28;20888;-75
2021/03/13 12:24:53;;;;;;;2.03;0.60;;;11.20;50.40;;;;;;5129614;28;20942;-74
2021/03/13 12:27:20;;;;;;;2.20;0.67;;;11.00;50.90;;;;;;5129565;28;20465;-75
2021/03/13 12:29:46;;;;;;;3.70;0.77;;;11.00;51.10;;;;;;5124481;28;20477;-76
2021/03/13 12:32:13;;;;;;;3.73;0.63;;;11.00;51.40;;;;;;5131396;27;20458;-76
2021/03/13 12:34:39;;;;;;;1.43;0.70;;;10.80;51.60;;;;;;5130128;28;21017;-76
2021/03/13 12:37:06;;;;;;;1.30;0.70;;;10.90;51.80;;;;;;5127341;27;20436;-75
2021/03/13 12:39:32;;;;;;;0.97;0.60;;;10.80;52.30;;;;;;5130011;27;20587;-76
2021/03/13 12:42:00;;;;;;;0.60;0.50;;;10.80;52.70;;;;;;5127103;27;20777;-74
2021/03/13 12:44:26;;;;;;;0.60;0.60;;;10.90;53.10;;;;;;5126963;27;20839;-76
2021/03/13 12:46:53;;;;;;;1.40;0.60;;;10.70;52.90;;;;;;5115903;27;20519;-75
2021/03/13 12:49:19;;;;;;;2.23;0.60;;;10.50;53.30;;;;;;5130802;27;20475;-78
2021/03/13 12:51:46;;;;;;;2.87;0.60;;;10.60;54.00;;;;;;5136439;27;20485;-75
2021/03/13 12:54:12;;;;;;;2.80;0.70;;;10.50;54.20;;;;;;5133151;27;20537;-74
2021/03/13 12:56:38;;;;;;;1.27;1.10;;;10.50;54.30;;;;;;5138867;27;20795;-75
2021/03/13 12:59:06;;;;;;;1.73;0.40;;;10.40;54.40;;;;;;5138217;27;20624;-75
2021/03/13 13:01:32;;;;;;;1.00;0.50;;;10.50;54.60;;;;;;5137449;27;20925;-76
2021/03/13 13:04:00;;;;;;;2.20;0.50;;;10.50;55.00;;;;;;5124420;27;20772;-78
2021/03/13 13:06:26;;;;;;;1.70;0.60;;;10.50;55.70;;;;;;5137620;27;20464;-75
2021/03/13 13:08:54;;;;;;;0.83;0.60;;;10.50;56.10;;;;;;5136302;27;21071;-74